sensor_id;sensor_type;location;lat;lon;timestamp;pressure;altitude;pressure_sealevel;temperature;humidity
55466;BME280;41329;41.594;23.810;2023-05-03T00:00:50;95598.22;;;14.41;54.03
55466;BME280;41329;41.594;23.810;2023-05-03T00:03:15;95600.66;;;14.50;54.14
55466;BME280;41329;41.594;23.810;2023-05-03T00:05:40;95593.13;;;14.54;54.17
55466;BME280;41329;41.594;23.810;2023-05-03T00:08:06;95590.22;;;14.36;54.27
55466;BME280;41329;41.594;23.810;2023-05-03T00:10:31;95602.59;;;14.39;54.56
55466;BME280;41329;41.594;23.810;2023-05-03T00:12:57;95583.47;;;14.34;54.68
55466;BME280;41329;41.594;23.810;2023-05-03T00:15:22;95582.69;;;14.40;54.78
55466;BME280;41329;41.594;23.810;2023-05-03T00:17:48;95571.09;;;14.28;55.14
55466;BME280;41329;41.594;23.810;2023-05-03T00:20:13;95570.34;;;14.31;54.90
55466;BME280;41329;41.594;23.810;2023-05-03T00:22:39;95569.19;;;14.39;54.85
55466;BME280;41329;41.594;23.810;2023-05-03T00:25:06;95577.94;;;14.41;54.81
55466;BME280;41329;41.594;23.810;2023-05-03T00:27:31;95582.69;;;14.40;55.14
55466;BME280;41329;41.594;23.810;2023-05-03T00:29:57;95562.34;;;14.26;55.38
55466;BME280;41329;41.594;23.810;2023-05-03T00:32:22;95571.53;;;14.33;55.34
55466;BME280;41329;41.594;23.810;2023-05-03T00:34:54;95545.28;;;14.31;55.19
55466;BME280;41329;41.594;23.810;2023-05-03T00:37:20;95518.09;;;14.10;54.92
55466;BME280;41329;41.594;23.810;2023-05-03T00:39:46;95547.28;;;14.34;54.65
55466;BME280;41329;41.594;23.810;2023-05-03T00:42:11;95545.28;;;14.34;54.50
55466;BME280;41329;41.594;23.810;2023-05-03T00:44:37;95556.06;;;14.43;54.60
55466;BME280;41329;41.594;23.810;2023-05-03T00:47:02;95558.44;;;14.41;54.42
55466;BME280;41329;41.594;23.810;2023-05-03T00:49:28;95565.59;;;14.42;54.41
55466;BME280;41329;41.594;23.810;2023-05-03T00:51:55;95566.00;;;14.40;54.07
55466;BME280;41329;41.594;23.810;2023-05-03T00:54:25;95546.91;;;14.39;54.10
55466;BME280;41329;41.594;23.810;2023-05-03T00:56:51;95551.72;;;14.45;53.68
55466;BME280;41329;41.594;23.810;2023-05-03T00:59:16;95528.59;;;14.38;53.98
55466;BME280;41329;41.594;23.810;2023-05-03T01:01:42;95541.75;;;14.44;53.55
55466;BME280;41329;41.594;23.810;2023-05-03T01:04:08;95535.03;;;14.49;53.85
55466;BME280;41329;41.594;23.810;2023-05-03T01:09:22;95518.75;;;14.58;53.68
55466;BME280;41329;41.594;23.810;2023-05-03T01:17:59;95535.84;;;14.56;53.16
55466;BME280;41329;41.594;23.810;2023-05-03T01:20:29;95523.13;;;14.55;53.47
55466;BME280;41329;41.594;23.810;2023-05-03T01:23:00;95535.06;;;14.59;53.55
55466;BME280;41329;41.594;23.810;2023-05-03T01:25:29;95519.91;;;14.50;53.04
55466;BME280;41329;41.594;23.810;2023-05-03T01:27:54;95484.84;;;14.28;53.16
55466;BME280;41329;41.594;23.810;2023-05-03T01:30:22;95513.94;;;14.55;52.88
55466;BME280;41329;41.594;23.810;2023-05-03T01:35:59;95520.31;;;14.55;52.35
55466;BME280;41329;41.594;23.810;2023-05-03T01:38:26;95525.94;;;14.66;52.19
55466;BME280;41329;41.594;23.810;2023-05-03T01:40:55;95526.34;;;14.71;52.08
55466;BME280;41329;41.594;23.810;2023-05-03T01:43:25;95515.59;;;14.66;52.20
55466;BME280;41329;41.594;23.810;2023-05-03T01:45:51;95533.09;;;14.67;52.35
55466;BME280;41329;41.594;23.810;2023-05-03T01:48:18;95523.94;;;14.59;52.38
55466;BME280;41329;41.594;23.810;2023-05-03T01:50:44;95526.72;;;14.63;53.26
55466;BME280;41329;41.594;23.810;2023-05-03T01:53:10;95524.31;;;14.61;52.68
55466;BME280;41329;41.594;23.810;2023-05-03T01:55:35;95508.81;;;14.60;53.28
55466;BME280;41329;41.594;23.810;2023-05-03T01:58:01;95530.72;;;14.72;53.97
55466;BME280;41329;41.594;23.810;2023-05-03T02:00:26;95505.59;;;14.51;54.15
55466;BME280;41329;41.594;23.810;2023-05-03T02:02:51;95501.19;;;14.47;54.34
55466;BME280;41329;41.594;23.810;2023-05-03T02:05:17;95521.50;;;14.47;55.56
55466;BME280;41329;41.594;23.810;2023-05-03T02:07:42;95518.72;;;14.51;56.17
55466;BME280;41329;41.594;23.810;2023-05-03T02:10:08;95525.44;;;14.43;56.20
55466;BME280;41329;41.594;23.810;2023-05-03T02:12:41;95527.44;;;14.42;56.69
55466;BME280;41329;41.594;23.810;2023-05-03T02:15:07;95515.03;;;14.26;56.92
55466;BME280;41329;41.594;23.810;2023-05-03T02:17:32;95540.94;;;14.33;57.57
55466;BME280;41329;41.594;23.810;2023-05-03T02:19:59;95532.53;;;14.30;57.82
55466;BME280;41329;41.594;23.810;2023-05-03T02:22:24;95484.59;;;13.82;58.10
55466;BME280;41329;41.594;23.810;2023-05-03T02:24:50;95531.25;;;14.17;58.64
55466;BME280;41329;41.594;23.810;2023-05-03T02:27:15;95536.03;;;14.20;59.71
55466;BME280;41329;41.594;23.810;2023-05-03T02:29:41;95534.47;;;14.19;58.19
55466;BME280;41329;41.594;23.810;2023-05-03T02:32:06;95536.03;;;14.20;59.10
55466;BME280;41329;41.594;23.810;2023-05-03T02:34:32;95507.78;;;14.07;59.36
55466;BME280;41329;41.594;23.810;2023-05-03T02:36:58;95530.44;;;14.13;59.46
55466;BME280;41329;41.594;23.810;2023-05-03T02:39:23;95517.66;;;14.05;59.89
55466;BME280;41329;41.594;23.810;2023-05-03T02:41:48;95537.19;;;14.08;60.82
55466;BME280;41329;41.594;23.810;2023-05-03T02:44:14;95531.50;;;13.87;61.97
55466;BME280;41329;41.594;23.810;2023-05-03T02:46:39;95542.41;;;13.63;62.74
55466;BME280;41329;41.594;23.810;2023-05-03T02:49:09;95561.56;;;13.71;61.77
55466;BME280;41329;41.594;23.810;2023-05-03T02:51:35;95571.19;;;13.81;61.64
55466;BME280;41329;41.594;23.810;2023-05-03T02:54:00;95593.00;;;13.79;61.27
55466;BME280;41329;41.594;23.810;2023-05-03T02:56:26;95611.59;;;13.68;61.77
55466;BME280;41329;41.594;23.810;2023-05-03T02:58:52;95645.41;;;13.33;63.71
55466;BME280;41329;41.594;23.810;2023-05-03T03:01:18;95671.13;;;12.64;68.20
55466;BME280;41329;41.594;23.810;2023-05-03T03:03:43;95681.94;;;12.43;69.40
55466;BME280;41329;41.594;23.810;2023-05-03T03:06:09;95705.13;;;12.28;70.76
55466;BME280;41329;41.594;23.810;2023-05-03T03:08:37;95715.16;;;12.10;71.38
55466;BME280;41329;41.594;23.810;2023-05-03T03:11:03;95732.88;;;12.28;70.65
55466;BME280;41329;41.594;23.810;2023-05-03T03:13:29;95720.50;;;12.48;70.33
55466;BME280;41329;41.594;23.810;2023-05-03T03:15:54;95734.84;;;12.53;69.40
55466;BME280;41329;41.594;23.810;2023-05-03T03:18:20;95741.09;;;12.47;69.17
55466;BME280;41329;41.594;23.810;2023-05-03T03:20:45;95733.25;;;12.52;69.16
55466;BME280;41329;41.594;23.810;2023-05-03T03:23:11;95735.44;;;12.66;69.12
55466;BME280;41329;41.594;23.810;2023-05-03T03:25:37;95750.53;;;12.69;69.15
55466;BME280;41329;41.594;23.810;2023-05-03T03:28:02;95728.91;;;12.55;68.79
55466;BME280;41329;41.594;23.810;2023-05-03T03:30:27;95734.13;;;12.60;68.47
55466;BME280;41329;41.594;23.810;2023-05-03T03:32:53;95744.34;;;12.52;69.00
55466;BME280;41329;41.594;23.810;2023-05-03T03:35:19;95722.47;;;12.48;68.89
55466;BME280;41329;41.594;23.810;2023-05-03T03:37:44;95735.31;;;12.59;68.55
55466;BME280;41329;41.594;23.810;2023-05-03T03:40:10;95722.25;;;12.60;68.47
55466;BME280;41329;41.594;23.810;2023-05-03T03:42:36;95730.34;;;12.72;68.26
55466;BME280;41329;41.594;23.810;2023-05-03T03:45:02;95720.31;;;12.64;68.12
55466;BME280;41329;41.594;23.810;2023-05-03T03:47:28;95706.81;;;12.62;68.25
55466;BME280;41329;41.594;23.810;2023-05-03T03:49:54;95733.28;;;12.82;68.29
55466;BME280;41329;41.594;23.810;2023-05-03T03:52:19;95684.09;;;12.53;68.03
55466;BME280;41329;41.594;23.810;2023-05-03T03:54:45;95730.53;;;12.86;67.80
55466;BME280;41329;41.594;23.810;2023-05-03T03:57:10;95744.56;;;12.96;67.87
55466;BME280;41329;41.594;23.810;2023-05-03T03:59:36;95753.78;;;13.00;67.51
55466;BME280;41329;41.594;23.810;2023-05-03T04:02:01;95748.25;;;13.04;67.53
55466;BME280;41329;41.594;23.810;2023-05-03T04:04:26;95760.31;;;13.15;67.57
55466;BME280;41329;41.594;23.810;2023-05-03T04:06:52;95772.28;;;13.19;67.86
55466;BME280;41329;41.594;23.810;2023-05-03T04:09:17;95774.25;;;13.18;67.70
55466;BME280;41329;41.594;23.810;2023-05-03T04:11:43;95755.50;;;13.12;67.47
55466;BME280;41329;41.594;23.810;2023-05-03T04:14:10;95759.97;;;13.20;67.85
55466;BME280;41329;41.594;23.810;2023-05-03T04:16:35;95757.69;;;13.25;68.10
55466;BME280;41329;41.594;23.810;2023-05-03T04:19:00;95757.31;;;13.27;68.43
55466;BME280;41329;41.594;23.810;2023-05-03T04:21:26;95759.38;;;13.33;68.37
55466;BME280;41329;41.594;23.810;2023-05-03T04:23:53;95747.75;;;13.24;68.29
55466;BME280;41329;41.594;23.810;2023-05-03T04:26:18;95735.03;;;13.23;68.65
55466;BME280;41329;41.594;23.810;2023-05-03T04:28:46;95752.94;;;13.26;69.00
55466;BME280;41329;41.594;23.810;2023-05-03T04:31:12;95771.94;;;13.24;68.59
55466;BME280;41329;41.594;23.810;2023-05-03T04:33:38;95760.09;;;12.97;68.63
55466;BME280;41329;41.594;23.810;2023-05-03T04:36:04;95711.16;;;12.60;69.36
55466;BME280;41329;41.594;23.810;2023-05-03T04:38:30;95752.56;;;12.72;69.83
55466;BME280;41329;41.594;23.810;2023-05-03T04:40:56;95752.19;;;12.73;70.69
55466;BME280;41329;41.594;23.810;2023-05-03T04:43:22;95775.00;;;12.89;70.76
55466;BME280;41329;41.594;23.810;2023-05-03T04:45:48;95758.75;;;12.88;71.25
55466;BME280;41329;41.594;23.810;2023-05-03T04:48:13;95748.97;;;12.97;71.32
55466;BME280;41329;41.594;23.810;2023-05-03T04:50:38;95756.56;;;13.00;71.43
55466;BME280;41329;41.594;23.810;2023-05-03T04:53:04;95766.22;;;13.10;71.35
55466;BME280;41329;41.594;23.810;2023-05-03T04:55:29;95760.31;;;13.15;71.57
55466;BME280;41329;41.594;23.810;2023-05-03T04:57:55;95749.31;;;13.22;71.72
55466;BME280;41329;41.594;23.810;2023-05-03T05:00:20;95745.00;;;13.28;71.64
55466;BME280;41329;41.594;23.810;2023-05-03T05:02:47;95743.50;;;13.34;71.63
55466;BME280;41329;41.594;23.810;2023-05-03T05:05:12;95751.06;;;13.37;71.40
55466;BME280;41329;41.594;23.810;2023-05-03T05:07:38;95752.28;;;13.39;71.31
55466;BME280;41329;41.594;23.810;2023-05-03T05:10:04;95758.22;;;13.38;70.79
55466;BME280;41329;41.594;23.810;2023-05-03T05:12:30;95739.88;;;13.30;70.88
55466;BME280;41329;41.594;23.810;2023-05-03T05:14:55;95736.28;;;13.29;70.44
55466;BME280;41329;41.594;23.810;2023-05-03T05:17:22;95752.34;;;13.43;70.40
55466;BME280;41329;41.594;23.810;2023-05-03T05:19:47;95742.34;;;13.38;70.37
55466;BME280;41329;41.594;23.810;2023-05-03T05:22:13;95729.19;;;13.35;70.61
55466;BME280;41329;41.594;23.810;2023-05-03T05:24:38;95741.59;;;13.41;71.02
55466;BME280;41329;41.594;23.810;2023-05-03T05:27:03;95761.91;;;13.45;70.82
55466;BME280;41329;41.594;23.810;2023-05-03T05:29:29;95755.97;;;13.47;70.89
55466;BME280;41329;41.594;23.810;2023-05-03T05:31:54;95757.19;;;13.49;71.12
55466;BME280;41329;41.594;23.810;2023-05-03T05:34:20;95759.13;;;13.45;70.69
55466;BME280;41329;41.594;23.810;2023-05-03T05:36:45;95767.56;;;13.56;70.41
55466;BME280;41329;41.594;23.810;2023-05-03T05:39:11;95755.25;;;13.53;69.82
55466;BME280;41329;41.594;23.810;2023-05-03T05:41:36;95748.88;;;13.53;70.07
55466;BME280;41329;41.594;23.810;2023-05-03T05:44:01;95754.44;;;13.53;70.31
55466;BME280;41329;41.594;23.810;2023-05-03T05:46:27;95738.09;;;13.48;70.18
55466;BME280;41329;41.594;23.810;2023-05-03T05:48:52;95734.94;;;13.49;69.62
55466;BME280;41329;41.594;23.810;2023-05-03T05:51:17;95741.38;;;13.57;68.52
55466;BME280;41329;41.594;23.810;2023-05-03T05:53:44;95751.28;;;13.54;69.02
55466;BME280;41329;41.594;23.810;2023-05-03T05:56:09;95724.19;;;13.48;68.47
55466;BME280;41329;41.594;23.810;2023-05-03T05:58:35;95743.78;;;13.58;68.04
55466;BME280;41329;41.594;23.810;2023-05-03T06:01:04;95738.22;;;13.58;68.58
55466;BME280;41329;41.594;23.810;2023-05-03T06:03:30;95726.72;;;13.60;69.69
55466;BME280;41329;41.594;23.810;2023-05-03T06:05:58;95709.25;;;13.63;69.95
55466;BME280;41329;41.594;23.810;2023-05-03T06:08:23;95719.72;;;13.76;69.38
55466;BME280;41329;41.594;23.810;2023-05-03T06:10:49;95697.75;;;13.64;68.89
55466;BME280;41329;41.594;23.810;2023-05-03T06:13:16;95719.00;;;13.83;68.85
55466;BME280;41329;41.594;23.810;2023-05-03T06:15:42;95713.03;;;13.84;68.46
55466;BME280;41329;41.594;23.810;2023-05-03T06:18:07;95715.16;;;13.98;68.36
55466;BME280;41329;41.594;23.810;2023-05-03T06:20:33;95729.16;;;14.08;67.91
55466;BME280;41329;41.594;23.810;2023-05-03T06:22:58;95734.75;;;14.12;67.19
55466;BME280;41329;41.594;23.810;2023-05-03T06:25:24;95720.84;;;14.12;67.48
55466;BME280;41329;41.594;23.810;2023-05-03T06:27:49;95668.91;;;13.83;66.83
55466;BME280;41329;41.594;23.810;2023-05-03T06:30:15;95724.13;;;14.21;67.23
55466;BME280;41329;41.594;23.810;2023-05-03T06:32:41;95720.97;;;14.26;66.21
55466;BME280;41329;41.594;23.810;2023-05-03T06:35:07;95721.41;;;14.28;64.70
55466;BME280;41329;41.594;23.810;2023-05-03T06:37:33;95711.41;;;14.23;64.72
55466;BME280;41329;41.594;23.810;2023-05-03T06:39:59;95720.16;;;14.22;64.44
55466;BME280;41329;41.594;23.810;2023-05-03T06:42:24;95722.47;;;14.16;64.49
55466;BME280;41329;41.594;23.810;2023-05-03T06:44:50;95700.50;;;14.04;64.60
55466;BME280;41329;41.594;23.810;2023-05-03T06:47:15;95718.91;;;14.19;64.40
55466;BME280;41329;41.594;23.810;2023-05-03T06:49:40;95721.66;;;14.16;62.94
55466;BME280;41329;41.594;23.810;2023-05-03T06:52:06;95730.50;;;14.21;63.25
55466;BME280;41329;41.594;23.810;2023-05-03T06:54:31;95723.66;;;14.15;63.60
55466;BME280;41329;41.594;23.810;2023-05-03T06:56:57;95729.78;;;14.31;64.71
55466;BME280;41329;41.594;23.810;2023-05-03T06:59:22;95729.41;;;14.36;62.93
55466;BME280;41329;41.594;23.810;2023-05-03T07:01:48;95743.47;;;14.50;62.95
55466;BME280;41329;41.594;23.810;2023-05-03T07:04:15;95742.41;;;14.69;62.87
55466;BME280;41329;41.594;23.810;2023-05-03T07:06:40;95735.25;;;14.75;62.36
55466;BME280;41329;41.594;23.810;2023-05-03T07:09:05;95731.34;;;14.83;61.61
55466;BME280;41329;41.594;23.810;2023-05-03T07:11:31;95729.69;;;14.78;61.31
55466;BME280;41329;41.594;23.810;2023-05-03T07:13:59;95736.97;;;14.93;60.49
55466;BME280;41329;41.594;23.810;2023-05-03T07:16:24;95725.44;;;14.98;60.62
55466;BME280;41329;41.594;23.810;2023-05-03T07:18:50;95723.44;;;14.95;60.04
55466;BME280;41329;41.594;23.810;2023-05-03T07:21:15;95727.84;;;15.00;60.90
55466;BME280;41329;41.594;23.810;2023-05-03T07:23:41;95728.66;;;15.07;62.12
55466;BME280;41329;41.594;23.810;2023-05-03T07:26:07;95716.41;;;15.19;62.35
55466;BME280;41329;41.594;23.810;2023-05-03T07:28:32;95684.09;;;15.07;60.70
55466;BME280;41329;41.594;23.810;2023-05-03T07:30:58;95715.75;;;15.50;62.47
55466;BME280;41329;41.594;23.810;2023-05-03T07:33:24;95692.28;;;15.68;62.75
55466;BME280;41329;41.594;23.810;2023-05-03T07:35:50;95698.72;;;16.00;62.94
55466;BME280;41329;41.594;23.810;2023-05-03T07:38:15;95689.94;;;16.19;59.21
55466;BME280;41329;41.594;23.810;2023-05-03T07:40:41;95703.91;;;16.30;58.37
55466;BME280;41329;41.594;23.810;2023-05-03T07:43:07;95704.72;;;16.48;59.68
55466;BME280;41329;41.594;23.810;2023-05-03T07:45:37;95705.88;;;16.68;57.42
55466;BME280;41329;41.594;23.810;2023-05-03T07:48:02;95693.88;;;16.78;57.55
55466;BME280;41329;41.594;23.810;2023-05-03T07:50:29;95709.78;;;17.09;54.50
55466;BME280;41329;41.594;23.810;2023-05-03T07:52:54;95683.41;;;17.10;56.71
55466;BME280;41329;41.594;23.810;2023-05-03T07:55:21;95701.31;;;17.40;55.51
55466;BME280;41329;41.594;23.810;2023-05-03T07:57:46;95688.91;;;17.34;54.22
55466;BME280;41329;41.594;23.810;2023-05-03T08:00:13;95708.78;;;17.61;53.27
55466;BME280;41329;41.594;23.810;2023-05-03T08:02:40;95699.88;;;17.83;53.21
55466;BME280;41329;41.594;23.810;2023-05-03T08:05:06;95692.66;;;17.86;52.24
55466;BME280;41329;41.594;23.810;2023-05-03T08:07:32;95688.34;;;17.74;50.79
55466;BME280;41329;41.594;23.810;2023-05-03T08:09:58;95706.34;;;17.73;52.38
55466;BME280;41329;41.594;23.810;2023-05-03T08:12:26;95706.47;;;17.45;48.53
55466;BME280;41329;41.594;23.810;2023-05-03T08:14:53;95690.56;;;17.25;49.83
55466;BME280;41329;41.594;23.810;2023-05-03T08:17:19;95710.16;;;17.11;49.89
55466;BME280;41329;41.594;23.810;2023-05-03T08:19:45;95719.81;;;16.82;51.51
55466;BME280;41329;41.594;23.810;2023-05-03T08:22:10;95709.09;;;16.45;51.65
55466;BME280;41329;41.594;23.810;2023-05-03T08:24:37;95701.53;;;16.42;51.87
55466;BME280;41329;41.594;23.810;2023-05-03T08:27:02;95709.50;;;16.54;53.14
55466;BME280;41329;41.594;23.810;2023-05-03T08:29:28;95689.94;;;16.51;53.65
55466;BME280;41329;41.594;23.810;2023-05-03T08:31:53;95700.75;;;16.49;53.91
55466;BME280;41329;41.594;23.810;2023-05-03T08:34:18;95703.94;;;16.40;52.31
55466;BME280;41329;41.594;23.810;2023-05-03T08:36:44;95718.25;;;16.35;53.02
55466;BME280;41329;41.594;23.810;2023-05-03T08:39:09;95720.66;;;16.26;53.75
55466;BME280;41329;41.594;23.810;2023-05-03T08:41:35;95703.09;;;16.12;54.93
55466;BME280;41329;41.594;23.810;2023-05-03T08:44:01;95727.41;;;16.15;53.78
55466;BME280;41329;41.594;23.810;2023-05-03T08:46:29;95735.78;;;16.04;52.40
55466;BME280;41329;41.594;23.810;2023-05-03T08:48:55;95725.81;;;15.93;52.99
55466;BME280;41329;41.594;23.810;2023-05-03T08:51:22;95709.44;;;15.91;53.11
55466;BME280;41329;41.594;23.810;2023-05-03T08:53:48;95719.81;;;15.98;53.59
55466;BME280;41329;41.594;23.810;2023-05-03T08:56:34;95733.75;;;15.84;54.03
55466;BME280;41329;41.594;23.810;2023-05-03T08:59:04;95715.78;;;15.74;54.09
55466;BME280;41329;41.594;23.810;2023-05-03T09:01:34;95736.16;;;15.89;54.21
55466;BME280;41329;41.594;23.810;2023-05-03T09:04:00;95728.63;;;15.96;53.91
55466;BME280;41329;41.594;23.810;2023-05-03T09:06:26;95705.88;;;15.98;54.66
55466;BME280;41329;41.594;23.810;2023-05-03T09:08:52;95724.63;;;16.22;55.93
55466;BME280;41329;41.594;23.810;2023-05-03T09:11:44;95716.69;;;16.34;55.92
55466;BME280;41329;41.594;23.810;2023-05-03T09:14:18;95718.31;;;16.42;55.54
55466;BME280;41329;41.594;23.810;2023-05-03T09:16:45;95705.50;;;16.52;57.16
55466;BME280;41329;41.594;23.810;2023-05-03T09:19:13;95713.50;;;16.60;57.39
55466;BME280;41329;41.594;23.810;2023-05-03T09:21:40;95703.09;;;16.61;56.06
55466;BME280;41329;41.594;23.810;2023-05-03T09:24:17;95711.47;;;16.75;55.17
55466;BME280;41329;41.594;23.810;2023-05-03T09:26:43;95697.50;;;16.68;54.53
55466;BME280;41329;41.594;23.810;2023-05-03T09:29:09;95708.28;;;16.76;55.68
55466;BME280;41329;41.594;23.810;2023-05-03T09:31:36;95710.28;;;16.72;54.65
55466;BME280;41329;41.594;23.810;2023-05-03T09:34:01;95702.69;;;16.73;54.99
55466;BME280;41329;41.594;23.810;2023-05-03T09:36:44;95704.66;;;16.86;55.82
55466;BME280;41329;41.594;23.810;2023-05-03T09:39:17;95707.03;;;16.91;55.71
55466;BME280;41329;41.594;23.810;2023-05-03T09:41:43;95707.03;;;16.98;55.28
55466;BME280;41329;41.594;23.810;2023-05-03T09:44:08;95714.19;;;16.99;54.41
55466;BME280;41329;41.594;23.810;2023-05-03T09:46:34;95691.06;;;16.85;53.85
55466;BME280;41329;41.594;23.810;2023-05-03T09:49:01;95688.66;;;16.94;54.67
55466;BME280;41329;41.594;23.810;2023-05-03T09:51:28;95689.06;;;16.96;54.24
55466;BME280;41329;41.594;23.810;2023-05-03T09:53:55;95669.94;;;16.80;54.66
55466;BME280;41329;41.594;23.810;2023-05-03T09:56:20;95700.31;;;16.50;54.19
55466;BME280;41329;41.594;23.810;2023-05-03T09:58:51;95675.97;;;16.51;54.47
55466;BME280;41329;41.594;23.810;2023-05-03T10:01:16;95682.75;;;16.53;54.11
55466;BME280;41329;41.594;23.810;2023-05-03T10:03:45;95676.78;;;16.48;53.95
55466;BME280;41329;41.594;23.810;2023-05-03T10:06:21;95682.38;;;16.51;54.63
55466;BME280;41329;41.594;23.810;2023-05-03T10:08:52;95679.94;;;16.57;54.35
55466;BME280;41329;41.594;23.810;2023-05-03T10:11:19;95664.81;;;16.37;54.39
55466;BME280;41329;41.594;23.810;2023-05-03T10:13:48;95681.16;;;16.38;54.36
55466;BME280;41329;41.594;23.810;2023-05-03T10:16:17;95679.97;;;16.46;54.08
55466;BME280;41329;41.594;23.810;2023-05-03T10:18:52;95674.34;;;16.36;54.65
55466;BME280;41329;41.594;23.810;2023-05-03T10:24:25;95675.16;;;16.29;55.20
55466;BME280;41329;41.594;23.810;2023-05-03T10:26:51;95661.19;;;16.29;55.04
55466;BME280;41329;41.594;23.810;2023-05-03T10:32:01;95640.09;;;16.25;56.51
55466;BME280;41329;41.594;23.810;2023-05-03T10:34:33;95654.06;;;16.21;55.32
55466;BME280;41329;41.594;23.810;2023-05-03T10:37:07;95638.09;;;16.04;55.97
55466;BME280;41329;41.594;23.810;2023-05-03T10:39:33;95652.44;;;16.10;55.80
55466;BME280;41329;41.594;23.810;2023-05-03T10:42:03;95634.91;;;16.06;55.78
55466;BME280;41329;41.594;23.810;2023-05-03T10:44:39;95654.84;;;16.18;55.60
55466;BME280;41329;41.594;23.810;2023-05-03T10:47:21;95644.84;;;16.24;55.76
55466;BME280;41329;41.594;23.810;2023-05-03T10:55:13;95645.69;;;16.11;55.50
55466;BME280;41329;41.594;23.810;2023-05-03T10:57:41;95635.69;;;15.99;55.92
55466;BME280;41329;41.594;23.810;2023-05-03T11:00:12;95645.28;;;15.98;55.92
55466;BME280;41329;41.594;23.810;2023-05-03T11:05:21;95648.06;;;15.95;55.98
55466;BME280;41329;41.594;23.810;2023-05-03T11:07:48;95637.31;;;15.93;56.58
55466;BME280;41329;41.594;23.810;2023-05-03T11:10:17;95630.53;;;15.91;56.51
55466;BME280;41329;41.594;23.810;2023-05-03T11:12:43;95620.94;;;15.85;56.97
55466;BME280;41329;41.594;23.810;2023-05-03T11:15:09;95620.53;;;15.76;57.57
55466;BME280;41329;41.594;23.810;2023-05-03T11:17:36;95625.72;;;15.70;58.06
55466;BME280;41329;41.594;23.810;2023-05-03T11:20:05;95609.38;;;15.51;58.59
55466;BME280;41329;41.594;23.810;2023-05-03T11:22:33;95608.97;;;15.70;59.49
55466;BME280;41329;41.594;23.810;2023-05-03T11:24:58;95607.00;;;15.81;59.41
55466;BME280;41329;41.594;23.810;2023-05-03T11:27:24;95617.34;;;15.70;58.72
55466;BME280;41329;41.594;23.810;2023-05-03T11:29:49;95624.16;;;15.76;59.04
55466;BME280;41329;41.594;23.810;2023-05-03T11:32:17;95616.56;;;15.59;59.15
55466;BME280;41329;41.594;23.810;2023-05-03T11:34:43;95573.91;;;15.48;59.83
55466;BME280;41329;41.594;23.810;2023-05-03T11:37:08;95618.97;;;15.82;59.84
55466;BME280;41329;41.594;23.810;2023-05-03T11:39:35;95617.78;;;15.79;59.83
55466;BME280;41329;41.594;23.810;2023-05-03T11:42:02;95618.97;;;15.82;60.10
55466;BME280;41329;41.594;23.810;2023-05-03T11:44:28;95625.72;;;15.67;59.37
55466;BME280;41329;41.594;23.810;2023-05-03T11:46:54;95630.50;;;15.73;60.30
55466;BME280;41329;41.594;23.810;2023-05-03T11:49:19;95617.34;;;15.42;61.12
55466;BME280;41329;41.594;23.810;2023-05-03T11:51:45;95618.53;;;15.59;61.24
55466;BME280;41329;41.594;23.810;2023-05-03T11:54:11;95613.38;;;15.54;60.94
55466;BME280;41329;41.594;23.810;2023-05-03T11:56:36;95620.56;;;15.69;61.25
55466;BME280;41329;41.594;23.810;2023-05-03T11:59:02;95614.16;;;15.72;62.32
55466;BME280;41329;41.594;23.810;2023-05-03T12:01:28;95621.34;;;15.87;62.48
55466;BME280;41329;41.594;23.810;2023-05-03T12:03:58;95626.13;;;15.97;63.68
55466;BME280;41329;41.594;23.810;2023-05-03T12:06:26;95595.03;;;15.88;63.29
55466;BME280;41329;41.594;23.810;2023-05-03T12:08:53;95595.44;;;15.97;63.54
55466;BME280;41329;41.594;23.810;2023-05-03T12:11:18;95596.22;;;16.04;63.89
55466;BME280;41329;41.594;23.810;2023-05-03T12:13:44;95603.81;;;16.04;63.89
55466;BME280;41329;41.594;23.810;2023-05-03T12:16:10;95603.00;;;16.00;64.42
55466;BME280;41329;41.594;23.810;2023-05-03T12:18:45;95591.06;;;16.03;64.48
55466;BME280;41329;41.594;23.810;2023-05-03T12:21:11;95594.25;;;16.01;64.01
55466;BME280;41329;41.594;23.810;2023-05-03T12:23:39;95601.81;;;16.01;64.06
55466;BME280;41329;41.594;23.810;2023-05-03T12:26:05;95596.66;;;16.03;64.42
55466;BME280;41329;41.594;23.810;2023-05-03T12:28:31;95581.09;;;15.98;64.88
55466;BME280;41329;41.594;23.810;2023-05-03T12:30:57;95584.66;;;16.02;64.75
55466;BME280;41329;41.594;23.810;2023-05-03T12:33:22;95594.25;;;16.01;65.41
55466;BME280;41329;41.594;23.810;2023-05-03T12:35:47;95578.72;;;16.00;64.81
55466;BME280;41329;41.594;23.810;2023-05-03T12:38:13;95551.22;;;15.88;64.82
55466;BME280;41329;41.594;23.810;2023-05-03T12:40:38;95552.38;;;15.87;65.26
55466;BME280;41329;41.594;23.810;2023-05-03T12:43:04;95513.75;;;15.61;65.14
55466;BME280;41329;41.594;23.810;2023-05-03T12:45:30;95544.00;;;15.87;65.42
55466;BME280;41329;41.594;23.810;2023-05-03T12:47:57;95534.47;;;15.78;65.57
55466;BME280;41329;41.594;23.810;2023-05-03T12:50:22;95530.06;;;15.66;65.71
55466;BME280;41329;41.594;23.810;2023-05-03T12:52:48;95552.41;;;15.80;65.60
55466;BME280;41329;41.594;23.810;2023-05-03T12:55:14;95535.66;;;15.80;66.45
55466;BME280;41329;41.594;23.810;2023-05-03T12:57:39;95531.66;;;15.81;66.40
55466;BME280;41329;41.594;23.810;2023-05-03T13:00:06;95530.47;;;15.79;66.81
55466;BME280;41329;41.594;23.810;2023-05-03T13:02:33;95522.09;;;15.79;66.71
55466;BME280;41329;41.594;23.810;2023-05-03T13:04:59;95499.00;;;15.75;66.95
55466;BME280;41329;41.594;23.810;2023-05-03T13:07:25;95514.53;;;15.86;67.02
55466;BME280;41329;41.594;23.810;2023-05-03T13:09:54;95509.34;;;15.85;67.11
55466;BME280;41329;41.594;23.810;2023-05-03T13:12:20;95504.16;;;15.80;67.46